Van Tassell, WY (82242)

3:37 PM MST on March 03, 2015 (GMT -0700)
LEMS | Change Station
CLOSE
Current Station
Personal Weather Station
Location: Lusk, WY
Elevation: 5070 ft
Nearby Weather Stations
Active Advisory: Winter Weather Advisory

Elev 5070 ft 42.76 °N, 104.45 °W | Updated 4 minutes ago

Snow
Snow
10.7 °F
Feels Like -3 °F
N
11.0
Wind Variable Wind from North
Gusts 18.0 mph

Today
High -- | Low -- °F
--% Chance of Precip.
Yesterday
High -- | Low -- °F
Precip. -- in
6:29 AM 5:48 PM
Waxing Gibbous, 97% visible
Pressure 30.04 in
Visibility 10.0 miles
Clouds Overcast 3000 ft
Windchill -3 °F
Dew Point 2 °F
Humidity 66%
Rainfall 0.00 in
Snow Depth Not available.
UV 1 out of 12
Pollen .60 out of 12
Air Quality Not available.
Flu Activity Not available.
METAR KTOR 032153Z AUTO 34007KT 10SM OVC030 M08/M14 A2992 RMK AO2 UPE2054 SLP172 P0000 T10781144

More Conditions Fewer Conditions

Pressure 30.04 in
Visibility 10.0 miles
Clouds Overcast 3000 ft
Windchill -3 °F
Dew Point 2 °F
Humidity 66%
Rainfall 0.00 in
Snow Depth Not available.
UV 1 out of 12
Pollen .60 out of 12
Air Quality Not available.
Flu Activity Not available.
METAR KTOR 032153Z AUTO 34007KT 10SM OVC030 M08/M14 A2992 RMK AO2 UPE2054 SLP172 P0000 T10781144

More Conditions Fewer Conditions

10-Day Weather Forecast

Almanac

Astronomy

Mar. 03, 2015 Rise Set
Actual Time
Civil Twilight
Nautical Twilight
Astronomical Twilight
Moon
Length of Visible Light
Length of Day
Tomorrow will be .
, % of the Moon is Illuminated

Today's Extremes

State Highs State Lows

Community

WunderPhotos

Upload Photos

1,802,297 photos uploaded!

WunderBlogs® & News

Nearby

Air Quality

  Air Quality AQ Index Pollutant
Not available.

Snow Depth

Station Depth Elevation

Earthquake Activity

City Distance Mag. Time & Date
Minimum magnitude displayed is 2.5.

Coastal Water Temperatures

Place Temperature

Nearby Weather Stations

Winter Weather Advisory
Statement as of 3:06 PM MST on March 03, 2015

... Winter Weather Advisory now in effect until 9 PM MST this
evening...

* timing... light snow will end across the area by early this
evening.

* Additional snow accumulations... mainly around 1 inch.

* Winds/visibility... north 10 to 15 with gusts up to 25 mph.
Visibilities may be reduced at times.

* Impacts... travel will remain difficult due to icy roadways and
blowing and drifting snow.

Precautionary/preparedness actions...

A Winter Weather Advisory for snow and blowing snow means that
visibilities will be limited due to a combination of falling and
blowing snow. Use caution when traveling... especially in open
areas and when approaching and driving over Railroad crossings.